SKCL/CLO METAR and TAF weather

Enter ICAO airport designator
Station Type Date Time Source
SKCL METAR 2022/06/28 13:00 UTC NOAA

SKCL 281300Z 36003KT 9000 -DZ FEW008 SCT025 BKN080 21/19 Q1020 NOSIG RMK A3014


Station Type Date Time Source
SKCL Decoded METAR 2022/06/28 13:00 UTC NOAA

Cali / Alfonso Bonillaaragon, Colombia (SKCL) 03-33N 076-23W 969M
Jun 28, 2022 - 09:00 AM EDT / 2022.06.28 1300 UTC
Wind: from the N (360 degrees) at 3 MPH (3 KT):0
Visibility: 5 mile(s):0
Sky conditions: mostly cloudy
Weather: light drizzle
Temperature: 69 F (21 C)
Dew Point: 66 F (19 C)
Relative Humidity: 88%
Pressure (altimeter): 30.12 in. Hg (1020 hPa)
ob: SKCL 281300Z 36003KT 9000 -DZ FEW008 SCT025 BKN080 21/19 Q1020 NOSIG RMK A3014
cycle: 13

Station Type Date Time Source
SKCL TAF 2022/06/28 12:42 UTC NOAA

TAF SKCL 281030Z 2812/2912 VRB02KT 9999 SCT020
TEMPO 2818/2821 32010KT SCT020TCU
TEMPO 2821/2824 TSRA SCT017CB BKN080
BECMG 2910/2912 4000 BR BKN010 TX29/2820Z TN19/2910Z

Example: see airport list